Time;durP1;ratioP1;P1;durP2;ratioP2;P2;SDS_P1;SDS_P2;PMS_P1;PMS_P2;Temp;Humidity;BMP_temperature;BMP_pressure;BME280_temperature;BME280_humidity;BME280_pressure;Samples;Min_cycle;Max_cycle;Signal;HPM_P1;HPM_P2
2023/10/18 00:00:58;;;;;;;0.80;0.80;;;;;;;7.54;100.00;99697.94;5071932;28;20831;-65
2023/10/18 00:03:29;;;;;;;0.90;0.90;;;;;;;7.55;100.00;99691.72;5089664;28;20032;-65
2023/10/18 00:06:00;;;;;;;0.80;0.80;;;;;;;7.50;100.00;99689.22;5090289;28;20032;-65
2023/10/18 00:08:25;;;;;;;0.80;0.80;;;;;;;7.54;100.00;99696.19;5089657;28;20024;-65
2023/10/18 00:10:53;;;;;;;0.90;0.90;;;;;;;7.59;100.00;99699.56;5073465;28;20035;-64
2023/10/18 00:13:24;;;;;;;0.90;0.90;;;;;;;7.56;100.00;99694.34;5084202;28;20030;-65
2023/10/18 00:15:53;;;;;;;0.80;0.80;;;;;;;7.55;100.00;99692.59;5090076;28;20024;-66
2023/10/18 00:18:20;;;;;;;0.90;0.90;;;;;;;7.49;100.00;99692.78;5088461;28;20051;-65
2023/10/18 00:20:46;;;;;;;0.80;0.80;;;;;;;7.52;100.00;99697.97;5070929;28;20021;-65
2023/10/18 00:23:11;;;;;;;0.80;0.80;;;;;;;7.52;100.00;99699.75;5078444;28;20073;-65
2023/10/18 00:25:36;;;;;;;0.90;0.90;;;;;;;7.50;100.00;99702.44;5062239;28;20024;-64
2023/10/18 00:28:03;;;;;;;0.80;0.80;;;;;;;7.46;100.00;99690.19;5090927;28;20436;-65
2023/10/18 00:30:30;;;;;;;0.80;0.80;;;;;;;7.42;100.00;99690.31;5090721;28;20031;-65
2023/10/18 00:32:56;;;;;;;0.80;0.80;;;;;;;7.40;100.00;99693.00;5088238;28;20044;-65
2023/10/18 00:35:31;;;;;;;0.80;0.80;;;;;;;7.36;100.00;99696.63;5090435;28;20074;-64
2023/10/18 00:37:57;;;;;;;0.80;0.80;;;;;;;7.32;100.00;99689.66;5090932;28;20058;-65
2023/10/18 00:41:09;;;;;;;0.80;0.80;;;;;;;7.30;100.00;99688.84;5071289;28;20024;-66
2023/10/18 00:43:22;;;;;;;0.90;0.90;;;;;;;7.18;100.00;99670.59;5075622;28;20048;-66
2023/10/18 00:45:52;;;;;;;0.90;0.90;;;;;;;7.25;100.00;99677.50;5089617;28;20067;-65
2023/10/18 00:48:20;;;;;;;0.80;0.80;;;;;;;7.20;100.00;99679.38;5089745;28;20392;-65
2023/10/18 00:50:48;;;;;;;0.80;0.80;;;;;;;7.20;100.00;99687.31;5087757;28;20028;-65
2023/10/18 00:53:23;;;;;;;0.90;0.90;;;;;;;7.19;100.00;99680.31;5090536;28;20047;-65
2023/10/18 00:55:53;;;;;;;0.80;0.80;;;;;;;7.17;100.00;99684.75;5086994;28;20028;-65
2023/10/18 00:58:21;;;;;;;0.80;0.80;;;;;;;7.17;100.00;99674.16;5089926;28;20038;-66
2023/10/18 01:00:48;;;;;;;0.90;0.90;;;;;;;7.16;100.00;99669.81;5071716;28;20028;-67
2023/10/18 01:03:29;;;;;;;0.82;0.82;;;;;;;7.18;100.00;99662.66;5072671;28;20039;-65
2023/10/18 01:06:06;;;;;;;0.80;0.80;;;;;;;7.16;100.00;99659.22;5090174;28;20372;-65
2023/10/18 01:08:36;;;;;;;0.80;0.80;;;;;;;7.08;100.00;99647.97;5090144;28;20042;-65
2023/10/18 01:11:06;;;;;;;0.90;0.90;;;;;;;7.13;100.00;99656.66;5076368;28;20056;-65
2023/10/18 01:13:37;;;;;;;1.00;1.00;;;;;;;7.07;100.00;99640.91;5069590;28;20352;-65
2023/10/18 01:16:14;;;;;;;0.80;0.80;;;;;;;7.15;100.00;99654.81;5072349;28;20038;-65
2023/10/18 01:18:44;;;;;;;0.80;0.80;;;;;;;7.18;100.00;99659.19;5069548;28;20103;-65
2023/10/18 01:21:16;;;;;;;0.80;0.80;;;;;;;7.18;100.00;99660.03;5069736;28;20484;-65
2023/10/18 01:23:49;;;;;;;0.80;0.80;;;;;;;7.15;100.00;99648.69;5082152;28;20028;-65
2023/10/18 01:26:15;;;;;;;0.80;0.80;;;;;;;7.13;100.00;99645.19;5076309;28;20031;-65
2023/10/18 01:28:41;;;;;;;0.80;0.80;;;;;;;7.18;100.00;99654.75;5069691;28;20036;-64
2023/10/18 01:31:09;;;;;;;0.90;0.90;;;;;;;7.18;100.00;99643.31;5071444;28;20029;-65
2023/10/18 01:33:35;;;;;;;0.90;0.90;;;;;;;7.18;100.00;99644.16;5068643;28;20090;-66
2023/10/18 01:36:01;;;;;;;0.90;0.90;;;;;;;7.19;100.00;99639.75;5068783;28;20024;-66
2023/10/18 01:38:30;;;;;;;0.80;0.80;;;;;;;7.16;100.00;99627.50;5050519;28;20027;-66
2023/10/18 01:40:58;;;;;;;0.90;0.90;;;;;;;7.18;100.00;99623.00;5071244;28;20173;-66
2023/10/18 01:43:29;;;;;;;0.90;0.90;;;;;;;7.10;100.00;99613.56;5050307;28;20043;-65
2023/10/18 01:45:54;;;;;;;0.90;0.90;;;;;;;7.17;100.00;99628.34;5071756;28;20036;-65
2023/10/18 01:48:20;;;;;;;0.90;0.90;;;;;;;7.10;100.00;99622.31;5061413;28;20075;-65
2023/10/18 01:50:50;;;;;;;0.80;0.80;;;;;;;7.14;100.00;99621.34;5071183;28;20067;-65
2023/10/18 01:53:16;;;;;;;0.90;0.90;;;;;;;7.18;100.00;99635.38;5086548;28;20015;-65
2023/10/18 01:55:53;;;;;;;0.90;0.90;;;;;;;7.19;100.00;99635.34;5088998;28;20507;-65
2023/10/18 01:58:24;;;;;;;0.90;0.90;;;;;;;7.19;100.00;99622.13;5062752;28;20043;-65
2023/10/18 02:00:53;;;;;;;0.90;0.90;;;;;;;7.17;100.00;99639.78;5083435;28;20031;-65
2023/10/18 02:03:19;;;;;;;0.90;0.90;;;;;;;7.13;100.00;99635.50;5088150;28;20612;-66
2023/10/18 02:05:48;;;;;;;0.90;0.90;;;;;;;7.16;100.00;99630.13;5088150;28;20020;-65
2023/10/18 02:08:14;;;;;;;0.90;0.90;;;;;;;7.08;100.00;99620.66;5075205;28;20055;-65
2023/10/18 02:10:44;;;;;;;0.88;0.88;;;;;;;7.04;100.00;99627.78;5068540;28;20059;-65
2023/10/18 02:13:11;;;;;;;0.90;0.90;;;;;;;7.03;100.00;99634.00;5064115;28;20445;-67
2023/10/18 02:15:39;;;;;;;0.90;0.90;;;;;;;7.00;100.00;99628.75;5053802;28;20020;-68
2023/10/18 02:18:06;;;;;;;0.80;0.80;;;;;;;6.99;100.00;99620.84;5053682;28;20021;-67
2023/10/18 02:20:34;;;;;;;0.90;0.90;;;;;;;6.99;100.00;99621.72;5053437;28;20036;-67
2023/10/18 02:23:00;;;;;;;0.80;0.80;;;;;;;6.95;100.00;99613.94;5062250;28;20058;-67
2023/10/18 02:28:28;;;;;;;0.90;0.90;;;;;;;6.88;100.00;99604.41;5066594;28;20460;-67
2023/10/18 02:31:07;;;;;;;0.80;0.80;;;;;;;6.85;100.00;99601.84;5060699;28;20028;-67
2023/10/18 02:33:45;;;;;;;0.90;0.90;;;;;;;6.77;100.00;99583.50;5070918;28;20036;-67
2023/10/18 02:36:11;;;;;;;0.90;0.90;;;;;;;6.79;100.00;99580.84;5052061;28;20033;-67
2023/10/18 02:38:41;;;;;;;0.90;0.90;;;;;;;6.78;100.00;99579.97;5068119;28;20751;-67
2023/10/18 02:41:15;;;;;;;0.80;0.80;;;;;;;6.75;100.00;99579.16;5058748;28;20102;-68
2023/10/18 02:43:45;;;;;;;0.90;0.90;;;;;;;6.70;100.00;99566.06;5057335;28;20021;-68
2023/10/18 02:46:16;;;;;;;0.80;0.80;;;;;;;6.72;100.00;99573.97;5060374;28;20028;-67
2023/10/18 02:48:44;;;;;;;0.80;0.80;;;;;;;6.67;100.00;99560.88;5058455;28;20032;-67
2023/10/18 02:51:13;;;;;;;0.80;0.80;;;;;;;6.71;100.00;99567.81;5056711;28;20084;-68
2023/10/18 02:53:42;;;;;;;0.90;0.90;;;;;;;6.75;100.00;99558.91;5072773;28;20064;-68
2023/10/18 02:56:10;;;;;;;0.80;0.80;;;;;;;6.75;100.00;99564.19;5072435;28;20091;-67
2023/10/18 02:58:38;;;;;;;0.90;0.90;;;;;;;6.73;100.00;99566.00;5072567;28;20020;-67
2023/10/18 03:01:06;;;;;;;0.80;0.80;;;;;;;6.78;100.00;99565.88;5070375;28;20287;-67
2023/10/18 03:03:32;;;;;;;0.90;0.90;;;;;;;6.80;100.00;99570.22;5070337;28;20040;-67
2023/10/18 03:06:13;;;;;;;0.90;0.90;;;;;;;6.79;100.00;99568.47;5071447;28;20028;-67
2023/10/18 03:08:49;;;;;;;0.80;0.80;;;;;;;6.76;100.00;99565.91;5068952;28;20044;-66
2023/10/18 03:11:14;;;;;;;0.90;0.90;;;;;;;6.79;100.00;99563.19;5076334;28;20048;-66
2023/10/18 03:13:42;;;;;;;0.93;0.93;;;;;;;6.80;100.00;99558.78;5091091;28;20072;-67
2023/10/18 03:18:44;;;;;;;0.80;0.80;;;;;;;6.79;100.00;99542.03;5073012;28;20028;-66
2023/10/18 03:21:22;;;;;;;0.90;0.90;;;;;;;6.78;100.00;99542.09;5072795;28;20028;-67
2023/10/18 03:23:51;;;;;;;0.80;0.80;;;;;;;6.68;100.00;99537.03;5085375;28;20390;-64
2023/10/18 03:26:23;;;;;;;0.80;0.80;;;;;;;6.72;100.00;99532.56;5092545;28;20050;-64
2023/10/18 03:28:52;;;;;;;0.90;0.90;;;;;;;6.68;100.00;99526.47;5080449;28;20108;-64
2023/10/18 03:31:21;;;;;;;1.00;1.00;;;;;;;6.68;100.00;99520.31;5053889;28;20028;-64
2023/10/18 03:34:02;;;;;;;0.90;0.90;;;;;;;6.74;100.00;99536.00;5073998;28;20016;-64
2023/10/18 03:36:32;;;;;;;0.90;0.90;;;;;;;6.74;100.00;99536.00;5092098;28;20047;-64
2023/10/18 03:39:00;;;;;;;0.80;0.80;;;;;;;6.72;100.00;99522.84;5073691;28;20047;-64
2023/10/18 03:41:40;;;;;;;0.98;0.98;;;;;;;6.69;100.00;99533.50;5074320;28;20380;-65
2023/10/18 03:44:06;;;;;;;0.90;0.90;;;;;;;6.72;100.00;99527.28;5086847;28;20036;-65
2023/10/18 03:46:39;;;;;;;0.90;0.90;;;;;;;6.72;100.00;99509.63;5071640;28;20024;-64
2023/10/18 03:49:10;;;;;;;0.90;0.90;;;;;;;6.72;100.00;99500.84;5086259;28;20044;-65
2023/10/18 03:51:40;;;;;;;0.90;0.90;;;;;;;6.75;100.00;99494.59;5089564;28;20035;-65
2023/10/18 03:54:05;;;;;;;0.90;0.90;;;;;;;6.75;100.00;99495.47;5083580;28;20027;-65
2023/10/18 03:56:36;;;;;;;1.00;1.00;;;;;;;6.75;100.00;99484.91;5089676;28;20032;-67
2023/10/18 03:59:19;;;;;;;0.80;0.80;;;;;;;6.70;100.00;99466.50;5071550;28;20133;-66
2023/10/18 04:01:55;;;;;;;0.90;0.90;;;;;;;6.79;100.00;99473.31;5078374;28;20039;-65
2023/10/18 04:04:21;;;;;;;0.93;0.93;;;;;;;6.79;100.00;99465.41;5070372;28;20024;-65
2023/10/18 04:06:50;;;;;;;0.90;0.90;;;;;;;6.83;100.00;99479.41;5073696;28;20036;-65
2023/10/18 04:09:16;;;;;;;0.80;0.80;;;;;;;6.83;100.00;99482.06;5071085;28;20501;-66
2023/10/18 04:11:42;;;;;;;0.90;0.90;;;;;;;6.86;100.00;99489.91;5044249;28;20114;-65
2023/10/18 04:14:10;;;;;;;0.90;0.90;;;;;;;6.87;100.00;99489.00;5050906;28;20051;-65
2023/10/18 04:16:36;;;;;;;0.80;0.80;;;;;;;6.88;100.00;99490.72;5068053;28;20043;-65
2023/10/18 04:19:02;;;;;;;0.98;0.98;;;;;;;6.89;100.00;99492.44;5069637;28;20043;-66
2023/10/18 04:21:27;;;;;;;0.90;0.90;;;;;;;6.88;100.00;99488.09;5063172;28;20499;-64
2023/10/18 04:23:59;;;;;;;1.00;1.00;;;;;;;6.85;100.00;99481.13;5070188;28;20028;-65
2023/10/18 04:26:27;;;;;;;0.90;0.90;;;;;;;6.92;100.00;99480.03;5070793;28;20056;-67
2023/10/18 04:28:57;;;;;;;0.93;0.93;;;;;;;6.92;100.00;99474.75;5053017;28;20399;-67
2023/10/18 04:31:24;;;;;;;0.95;0.95;;;;;;;6.98;100.00;99486.94;5056407;28;20560;-66
2023/10/18 04:33:52;;;;;;;0.90;0.90;;;;;;;6.93;100.00;99494.13;5055337;28;20024;-69
2023/10/18 04:36:20;;;;;;;0.90;0.90;;;;;;;6.90;100.00;99483.63;5057514;28;20025;-69
2023/10/18 04:38:47;;;;;;;0.98;0.98;;;;;;;6.96;100.00;99486.97;5058707;28;20036;-69
2023/10/18 04:43:51;;;;;;;0.90;0.90;;;;;;;7.06;100.00;99467.31;5057852;28;20033;-69
2023/10/18 04:46:27;;;;;;;0.90;0.90;;;;;;;7.12;100.00;99471.56;5064351;28;20059;-68
2023/10/18 04:51:33;;;;;;;0.80;0.80;;;;;;;7.20;100.00;99457.22;5074721;28;20541;-68
2023/10/18 04:54:09;;;;;;;0.80;0.80;;;;;;;7.24;100.00;99452.72;5072006;28;20025;-68
2023/10/18 04:56:38;;;;;;;0.88;0.88;;;;;;;7.27;100.00;99448.22;5077587;28;20052;-69
2023/10/18 04:59:52;;;;;;;0.90;0.90;;;;;;;7.32;100.00;99448.94;5055777;28;20035;-69
2023/10/18 05:04:29;;;;;;;0.82;0.82;;;;;;;7.43;100.00;99451.28;5057324;28;20128;-68
2023/10/18 05:06:56;;;;;;;0.85;0.85;;;;;;;7.47;100.00;99450.28;5054771;28;20452;-68
2023/10/18 05:09:30;;;;;;;0.80;0.80;;;;;;;7.47;100.00;99440.56;5054845;28;20029;-68
2023/10/18 05:11:59;;;;;;;0.90;0.90;;;;;;;7.51;100.00;99441.34;5067598;28;20059;-66
2023/10/18 05:14:43;;;;;;;0.80;0.80;;;;;;;7.53;100.00;99421.84;5075655;28;20384;-68
2023/10/18 05:17:21;;;;;;;0.80;0.80;;;;;;;7.59;100.00;99419.03;5076328;28;20032;-68
2023/10/18 05:19:48;;;;;;;0.80;0.80;;;;;;;7.64;100.00;99416.25;5078057;28;20419;-68
2023/10/18 05:22:19;;;;;;;0.88;0.88;;;;;;;7.60;100.00;99425.19;5058503;28;20115;-68
2023/10/18 05:24:55;;;;;;;0.90;0.90;;;;;;;7.61;100.00;99422.47;5080291;28;20119;-68
2023/10/18 05:27:27;;;;;;;0.80;0.80;;;;;;;7.62;100.00;99418.94;5096684;28;20723;-68
2023/10/18 05:29:58;;;;;;;0.90;0.90;;;;;;;7.64;100.00;99411.81;5079089;28;20035;-67
2023/10/18 05:33:15;;;;;;;0.75;0.75;;;;;;;7.67;100.00;99406.44;5075124;28;20092;-67
2023/10/18 05:35:24;;;;;;;0.90;0.90;;;;;;;7.70;100.00;99405.47;5068548;28;20048;-67
2023/10/18 05:38:19;;;;;;;0.70;0.70;;;;;;;7.71;100.00;99416.00;5072148;28;20028;-68
2023/10/18 05:40:56;;;;;;;0.85;0.85;;;;;;;7.78;100.00;99414.91;5073370;28;20025;-69
2023/10/18 05:43:22;;;;;;;0.90;0.90;;;;;;;7.81;100.00;99414.81;5073892;28;20132;-67
2023/10/18 05:45:49;;;;;;;0.82;0.82;;;;;;;7.82;100.00;99416.53;5071843;28;20036;-67
2023/10/18 05:48:17;;;;;;;0.90;0.90;;;;;;;7.87;100.00;99414.59;5071043;28;20058;-67
2023/10/18 05:50:56;;;;;;;0.90;0.90;;;;;;;7.88;100.00;99400.47;5079499;28;20032;-67
2023/10/18 05:53:24;;;;;;;0.80;0.80;;;;;;;7.87;100.00;99388.13;5093797;28;20027;-68
2023/10/18 05:55:54;;;;;;;0.80;0.80;;;;;;;7.80;100.00;99383.97;5093641;28;20026;-67
2023/10/18 05:58:26;;;;;;;0.90;0.90;;;;;;;7.83;100.00;99394.44;5076271;28;20035;-67
2023/10/18 06:00:55;;;;;;;0.90;0.90;;;;;;;7.74;100.00;99401.81;5055491;28;20024;-68
2023/10/18 06:03:22;;;;;;;0.85;0.85;;;;;;;7.69;100.00;99399.28;5092304;28;20048;-68
2023/10/18 06:05:51;;;;;;;0.90;0.90;;;;;;;7.67;100.00;99385.25;5075896;28;20031;-68
2023/10/18 06:08:18;;;;;;;0.80;0.80;;;;;;;7.72;100.00;99393.06;5065215;28;20119;-67
2023/10/18 06:10:44;;;;;;;0.90;0.90;;;;;;;7.69;100.00;99394.00;5074575;28;20024;-67
2023/10/18 06:13:20;;;;;;;0.88;0.88;;;;;;;7.75;100.00;99399.13;5073578;28;20103;-67
2023/10/18 06:15:50;;;;;;;0.90;0.90;;;;;;;7.72;100.00;99393.94;5073641;28;20383;-68
2023/10/18 06:18:25;;;;;;;0.80;0.80;;;;;;;7.70;100.00;99390.47;5076884;28;20104;-67
2023/10/18 06:20:53;;;;;;;0.90;0.90;;;;;;;7.78;100.00;99388.44;5079752;28;20020;-67
2023/10/18 06:25:49;;;;;;;0.80;0.80;;;;;;;7.92;100.00;99396.78;5094652;28;20020;-67
2023/10/18 06:28:21;;;;;;;0.90;0.90;;;;;;;7.92;100.00;99391.50;5094910;28;20036;-67
2023/10/18 06:30:51;;;;;;;0.80;0.80;;;;;;;8.00;100.00;99383.31;5071103;28;20399;-67
2023/10/18 06:33:19;;;;;;;0.90;0.90;;;;;;;8.07;100.00;99380.41;5092864;28;20023;-67
2023/10/18 06:35:52;;;;;;;0.90;0.90;;;;;;;8.18;100.00;99376.56;5075035;28;20020;-67
2023/10/18 06:38:24;;;;;;;0.90;0.90;;;;;;;8.23;100.00;99375.53;5088976;28;20063;-67
2023/10/18 06:40:53;;;;;;;0.90;0.90;;;;;;;8.29;100.00;99369.13;5091796;28;20020;-68
2023/10/18 06:43:20;;;;;;;0.80;0.80;;;;;;;8.36;100.00;99362.72;5075371;28;20028;-67
2023/10/18 06:45:48;;;;;;;0.80;0.80;;;;;;;8.51;100.00;99371.03;5072397;28;20074;-67
2023/10/18 06:48:14;;;;;;;0.80;0.80;;;;;;;8.61;100.00;99369.78;5073098;28;20036;-67
2023/10/18 06:50:40;;;;;;;0.80;0.80;;;;;;;8.72;100.00;99369.38;5078187;28;20036;-67
2023/10/18 06:53:06;;;;;;;0.80;0.80;;;;;;;8.81;100.00;99363.78;5090287;28;20043;-65
2023/10/18 07:00:51;;;;;;;0.80;0.80;;;;;;;8.86;100.00;99380.41;5084286;28;20032;-65
2023/10/18 07:03:18;;;;;;;0.90;0.90;;;;;;;8.94;100.00;99388.94;5071709;28;20024;-65
2023/10/18 07:05:49;;;;;;;0.80;0.80;;;;;;;9.03;100.00;99385.94;5056106;28;20028;-65
2023/10/18 07:08:25;;;;;;;0.80;0.80;;;;;;;9.11;100.00;99381.22;5084546;28;20036;-65
2023/10/18 07:10:54;;;;;;;0.80;0.80;;;;;;;9.23;100.00;99378.09;5089501;28;20032;-65
2023/10/18 07:13:33;;;;;;;0.80;0.80;;;;;;;9.33;100.00;99361.81;5092194;28;20027;-65
2023/10/18 07:16:12;;;;;;;0.70;0.70;;;;;;;9.49;100.00;99364.72;5074198;28;20031;-65
2023/10/18 07:18:44;;;;;;;0.70;0.70;;;;;;;9.65;100.00;99365.88;5075121;28;20021;-65
2023/10/18 07:21:11;;;;;;;0.70;0.70;;;;;;;9.58;99.84;99340.47;5071885;28;20037;-65
2023/10/18 07:23:37;;;;;;;0.75;0.75;;;;;;;9.89;99.49;99378.16;5080432;28;20039;-65
2023/10/18 07:26:13;;;;;;;0.70;0.70;;;;;;;10.00;98.03;99375.94;5080265;28;20035;-65
2023/10/18 07:28:40;;;;;;;0.80;0.80;;;;;;;10.02;96.78;99360.81;5071583;28;20032;-65
2023/10/18 07:31:11;;;;;;;0.70;0.70;;;;;;;10.13;95.62;99368.38;5073896;28;20024;-65
2023/10/18 07:33:40;;;;;;;0.70;0.70;;;;;;;10.23;95.70;99346.66;5070781;28;20028;-65
2023/10/18 07:36:11;;;;;;;0.70;0.70;;;;;;;10.51;93.95;99371.16;5070617;28;20024;-65
2023/10/18 07:38:38;;;;;;;0.70;0.70;;;;;;;10.48;91.73;99376.59;5088084;28;20519;-65
2023/10/18 07:41:07;;;;;;;0.70;0.70;;;;;;;10.45;90.38;99363.44;5090651;28;20032;-65
2023/10/18 07:43:33;;;;;;;0.70;0.70;;;;;;;10.50;90.04;99358.81;5081644;28;20047;-65
2023/10/18 07:46:06;;;;;;;0.70;0.70;;;;;;;10.66;90.23;99351.00;5070500;28;20037;-65
2023/10/18 07:48:32;;;;;;;0.80;0.80;;;;;;;10.84;89.20;99352.03;5056264;28;20511;-65
2023/10/18 07:50:58;;;;;;;0.70;0.70;;;;;;;10.82;88.36;99348.56;5073030;28;20044;-64
2023/10/18 07:53:24;;;;;;;0.70;0.70;;;;;;;10.75;87.06;99347.09;5088364;28;20016;-65
2023/10/18 07:55:57;;;;;;;0.70;0.70;;;;;;;10.92;87.20;99348.09;5091398;28;20349;-65
2023/10/18 07:58:24;;;;;;;0.60;0.60;;;;;;;11.15;86.84;99352.38;5090044;28;20027;-66
2023/10/18 08:03:28;;;;;;;0.70;0.70;;;;;;;12.00;83.30;99344.75;5078317;28;20475;-65
2023/10/18 08:06:06;;;;;;;0.60;0.60;;;;;;;12.08;80.65;99347.91;5091566;28;20787;-65
2023/10/18 08:08:32;;;;;;;0.60;0.60;;;;;;;12.08;80.38;99331.03;5091713;28;20493;-65
2023/10/18 08:10:59;;;;;;;0.68;0.68;;;;;;;12.40;79.52;99349.84;5088556;28;20028;-65
2023/10/18 08:13:31;;;;;;;0.60;0.60;;;;;;;12.57;78.27;99341.81;5057496;28;20035;-65
2023/10/18 08:16:01;;;;;;;0.70;0.70;;;;;;;12.73;77.18;99342.78;5051151;28;20050;-65
2023/10/18 08:18:42;;;;;;;0.70;0.70;;;;;;;12.59;75.41;99336.41;5050961;28;20029;-65
2023/10/18 08:21:08;;;;;;;0.60;0.60;;;;;;;12.84;74.88;99335.06;5051807;28;20040;-65
2023/10/18 08:23:35;;;;;;;0.50;0.50;;;;;;;13.30;74.96;99319.28;5069836;28;20016;-65
2023/10/18 08:26:03;;;;;;;0.60;0.60;;;;;;;13.91;72.65;99320.25;5070545;28;20021;-65
2023/10/18 08:28:39;;;;;;;0.50;0.50;;;;;;;14.16;66.07;99302.72;5069849;28;20102;-65
2023/10/18 08:31:15;;;;;;;0.50;0.50;;;;;;;13.99;67.06;99318.88;5062081;28;20054;-65
2023/10/18 08:33:41;;;;;;;0.50;0.50;;;;;;;13.87;66.78;99319.56;5049804;28;20025;-65
2023/10/18 08:36:09;;;;;;;0.60;0.60;;;;;;;13.32;67.94;99333.41;5049922;28;20021;-63
2023/10/18 08:38:35;;;;;;;0.57;0.57;;;;;;;12.88;70.67;99325.94;5051977;28;20033;-64
2023/10/18 08:41:15;;;;;;;0.60;0.60;;;;;;;12.64;72.52;99332.56;5056794;28;20032;-65
2023/10/18 08:43:52;;;;;;;0.50;0.50;;;;;;;12.49;74.17;99329.81;5069856;28;20107;-65
2023/10/18 08:46:24;;;;;;;0.50;0.50;;;;;;;12.37;74.67;99323.28;5068558;28;20077;-64
2023/10/18 08:48:53;;;;;;;0.50;0.50;;;;;;;12.35;75.56;99325.22;5051237;28;20060;-65
2023/10/18 08:51:19;;;;;;;0.60;0.60;;;;;;;12.18;76.58;99314.50;5050330;28;20392;-64
2023/10/18 08:53:46;;;;;;;0.60;0.60;;;;;;;12.18;77.46;99322.50;5052884;28;20040;-64
2023/10/18 08:56:11;;;;;;;0.50;0.50;;;;;;;12.07;77.66;99319.53;5067053;28;20042;-64
2023/10/18 08:58:39;;;;;;;0.50;0.50;;;;;;;12.02;77.97;99326.88;5070088;28;20020;-64
2023/10/18 09:01:05;;;;;;;0.60;0.60;;;;;;;11.81;78.20;99312.81;5070055;28;20028;-64
2023/10/18 09:03:32;;;;;;;0.60;0.60;;;;;;;11.78;78.40;99312.94;5053931;28;20496;-65
2023/10/18 09:06:22;;;;;;;0.60;0.60;;;;;;;11.72;79.67;99304.41;5049167;28;20031;-64
2023/10/18 09:09:05;;;;;;;0.60;0.60;;;;;;;11.77;80.52;99294.38;5058413;28;20020;-64
2023/10/18 09:11:31;;;;;;;0.70;0.70;;;;;;;11.70;79.97;99298.28;5070901;28;20508;-64
2023/10/18 09:17:00;;;;;;;0.60;0.60;;;;;;;11.56;81.34;99277.63;5059415;28;20060;-64
2023/10/18 09:19:27;;;;;;;0.60;0.60;;;;;;;11.50;82.29;99282.34;5074544;28;20111;-63
2023/10/18 09:22:01;;;;;;;0.65;0.65;;;;;;;11.38;82.48;99275.81;5055490;28;20028;-64
2023/10/18 09:24:32;;;;;;;0.60;0.60;;;;;;;11.28;83.47;99273.66;5091730;28;20028;-63
2023/10/18 09:26:58;;;;;;;0.60;0.60;;;;;;;11.25;83.85;99269.34;5092704;28;20039;-63
2023/10/18 09:29:26;;;;;;;0.70;0.70;;;;;;;11.20;83.81;99266.03;5092623;28;20028;-64
2023/10/18 09:31:54;;;;;;;0.60;0.60;;;;;;;11.26;83.26;99272.88;5085436;28;20408;-63
2023/10/18 09:34:21;;;;;;;0.60;0.60;;;;;;;11.21;84.00;99269.56;5071574;28;20021;-64
2023/10/18 09:36:56;;;;;;;0.60;0.60;;;;;;;11.16;83.85;99271.56;5054313;28;20016;-63
2023/10/18 09:39:24;;;;;;;0.60;0.60;;;;;;;11.13;83.83;99269.06;5087491;28;20055;-64
2023/10/18 09:41:49;;;;;;;0.60;0.60;;;;;;;11.16;84.62;99263.59;5093755;28;20445;-64
2023/10/18 09:44:18;;;;;;;0.60;0.60;;;;;;;11.18;85.49;99267.06;5086790;28;20032;-64
2023/10/18 09:46:48;;;;;;;0.60;0.60;;;;;;;11.18;85.14;99261.72;5073537;28;20024;-64
2023/10/18 09:49:21;;;;;;;0.60;0.60;;;;;;;11.10;85.68;99263.88;5093638;28;20024;-64
2023/10/18 09:51:53;;;;;;;0.60;0.60;;;;;;;11.17;84.88;99250.22;5094289;28;20031;-64
2023/10/18 09:54:21;;;;;;;0.57;0.57;;;;;;;11.14;84.79;99250.34;5091540;28;20039;-64
2023/10/18 09:56:48;;;;;;;0.70;0.70;;;;;;;11.18;85.90;99256.41;5094101;28;20138;-63
2023/10/18 09:59:25;;;;;;;0.70;0.70;;;;;;;11.22;84.61;99255.34;5093910;28;20047;-64
2023/10/18 10:02:00;;;;;;;0.68;0.68;;;;;;;11.22;85.10;99242.03;5082000;28;20471;-64
2023/10/18 10:04:32;;;;;;;0.65;0.65;;;;;;;11.17;83.44;99252.03;5073597;28;20084;-64
2023/10/18 10:09:47;;;;;;;0.60;0.60;;;;;;;11.13;84.14;99261.06;5073772;28;20055;-64
2023/10/18 10:12:19;;;;;;;0.60;0.60;;;;;;;11.12;85.79;99256.69;5073043;28;20047;-63
2023/10/18 10:14:45;;;;;;;0.68;0.68;;;;;;;11.08;86.05;99247.13;5092680;28;20055;-64
2023/10/18 10:17:15;;;;;;;0.60;0.60;;;;;;;11.21;86.07;99248.28;5077387;28;20025;-64
2023/10/18 10:19:47;;;;;;;0.60;0.60;;;;;;;11.35;84.74;99243.16;5072163;28;20597;-64
2023/10/18 10:22:15;;;;;;;0.70;0.70;;;;;;;11.43;83.98;99225.03;5074373;28;20119;-64
2023/10/18 10:24:42;;;;;;;0.70;0.70;;;;;;;11.55;83.67;99230.59;5092873;28;20027;-65
2023/10/18 10:30:46;;;;;;;0.60;0.60;;;;;;;11.64;82.52;99224.00;5090987;28;20028;-64
2023/10/18 10:32:49;;;;;;;0.60;0.60;;;;;;;11.65;82.32;99218.59;5081180;28;20632;-64
2023/10/18 10:35:20;;;;;;;0.70;0.70;;;;;;;11.73;82.14;99218.19;5094664;28;20391;-63
2023/10/18 10:37:46;;;;;;;0.60;0.60;;;;;;;11.83;82.93;99207.00;5096044;28;20395;-63
2023/10/18 10:40:19;;;;;;;0.60;0.60;;;;;;;11.92;82.60;99208.34;5097105;28;20058;-64
2023/10/18 10:42:48;;;;;;;0.60;0.60;;;;;;;12.04;82.76;99202.41;5086385;28;20073;-63
2023/10/18 10:53:57;;;;;;;0.60;0.60;;;;;;;12.14;80.08;99192.97;5088921;28;20020;-64
2023/10/18 10:56:30;;;;;;;0.60;0.60;;;;;;;12.20;79.77;99194.47;5094914;28;20051;-64
2023/10/18 10:59:03;;;;;;;0.50;0.50;;;;;;;12.13;80.34;99183.25;5077388;28;20036;-64
2023/10/18 11:01:43;;;;;;;0.60;0.60;;;;;;;12.16;80.93;99179.59;5076464;28;20039;-63
2023/10/18 11:04:14;;;;;;;0.60;0.60;;;;;;;12.19;81.00;99177.59;5096152;28;20127;-63
2023/10/18 11:06:43;;;;;;;0.60;0.60;;;;;;;12.07;80.63;99166.72;5095942;28;20026;-63
2023/10/18 11:09:15;;;;;;;0.52;0.52;;;;;;;12.12;80.01;99173.53;5096242;28;20019;-63
2023/10/18 11:11:45;;;;;;;0.60;0.60;;;;;;;12.16;80.15;99159.09;5093556;28;20123;-64
2023/10/18 11:14:18;;;;;;;0.60;0.60;;;;;;;12.25;80.61;99147.97;5094880;28;20106;-64
2023/10/18 11:16:46;;;;;;;0.60;0.60;;;;;;;12.38;80.59;99148.16;5094447;28;20436;-63
2023/10/18 11:19:15;;;;;;;0.50;0.50;;;;;;;12.37;79.72;99147.28;5094125;28;20024;-64
2023/10/18 11:21:42;;;;;;;0.60;0.60;;;;;;;12.43;80.16;99149.66;5079180;28;20028;-63
2023/10/18 11:24:11;;;;;;;0.60;0.60;;;;;;;12.50;80.79;99140.38;5088976;28;20047;-63
2023/10/18 11:26:43;;;;;;;0.50;0.50;;;;;;;12.61;80.46;99162.00;5093701;28;20020;-64
2023/10/18 11:29:08;;;;;;;0.50;0.50;;;;;;;12.72;80.69;99150.72;5092465;28;20051;-64
2023/10/18 11:31:37;;;;;;;0.50;0.50;;;;;;;12.80;79.78;99152.00;5076264;28;20078;-63
2023/10/18 11:34:06;;;;;;;0.50;0.50;;;;;;;12.91;79.33;99157.66;5072194;28;20020;-65
2023/10/18 11:36:34;;;;;;;0.55;0.55;;;;;;;12.92;78.28;99140.66;5074332;28;20492;-64
2023/10/18 11:41:41;;;;;;;0.60;0.60;;;;;;;12.98;78.32;99129.63;5074211;28;20036;-65
2023/10/18 11:44:10;;;;;;;0.55;0.55;;;;;;;13.06;78.23;99127.44;5071425;28;20036;-65
2023/10/18 11:46:51;;;;;;;0.50;0.50;;;;;;;13.08;78.41;99125.53;5081699;28;20056;-64
2023/10/18 11:49:19;;;;;;;0.40;0.40;;;;;;;13.08;78.57;99112.19;5071723;28;20104;-65
2023/10/18 11:51:51;;;;;;;0.50;0.50;;;;;;;13.03;78.49;99100.91;5088041;28;20066;-64
2023/10/18 11:54:34;;;;;;;0.50;0.50;;;;;;;13.01;77.17;99094.78;5090880;28;20027;-64
2023/10/18 11:57:02;;;;;;;0.47;0.47;;;;;;;13.02;76.84;99095.66;5080451;28;20024;-65
2023/10/18 11:59:28;;;;;;;0.40;0.40;;;;;;;12.97;77.53;99100.38;5071465;28;20040;-64
2023/10/18 12:01:59;;;;;;;0.50;0.50;;;;;;;12.87;78.26;99094.69;5073954;28;20107;-64
2023/10/18 12:04:28;;;;;;;0.52;0.52;;;;;;;12.90;77.52;99089.19;5071131;28;20108;-64
2023/10/18 12:06:57;;;;;;;0.50;0.50;;;;;;;12.93;78.08;99083.66;5070996;28;20028;-65
2023/10/18 12:11:49;;;;;;;0.40;0.40;;;;;;;13.12;78.98;99084.38;5070783;28;20059;-64
2023/10/18 12:14:15;;;;;;;0.50;0.50;;;;;;;13.13;79.54;99080.75;5077348;28;20028;-64
2023/10/18 12:16:41;;;;;;;0.50;0.50;;;;;;;13.10;80.54;99075.59;5090111;28;20039;-65
2023/10/18 12:19:10;;;;;;;0.50;0.50;;;;;;;13.18;80.29;99073.34;5089868;28;20019;-64
2023/10/18 12:21:36;;;;;;;0.50;0.50;;;;;;;13.24;79.30;99062.28;5090626;28;20089;-64
2023/10/18 12:24:04;;;;;;;0.40;0.40;;;;;;;13.26;78.93;99069.38;5078804;28;20048;-64
2023/10/18 12:26:35;;;;;;;0.50;0.50;;;;;;;13.23;78.62;99071.25;5069749;28;20151;-64
2023/10/18 12:29:04;;;;;;;0.40;0.40;;;;;;;13.21;78.16;99065.13;5078616;28;20388;-64
2023/10/18 12:31:32;;;;;;;0.50;0.50;;;;;;;13.08;78.93;99061.47;5091060;28;20028;-64
2023/10/18 12:33:58;;;;;;;0.50;0.50;;;;;;;13.11;79.34;99061.28;5086844;28;20016;-64